createdAt,value
2018-07-20T00:01:39.265Z,100822.12
2018-07-20T00:04:07.266Z,100820.10
2018-07-20T00:06:35.305Z,100822.39
2018-07-20T00:09:04.153Z,100811.72
2018-07-20T00:11:32.137Z,100813.92
2018-07-20T00:14:00.176Z,100812.41
2018-07-20T00:16:28.821Z,100812.91
2018-07-20T00:18:56.841Z,100802.29
2018-07-20T00:21:24.827Z,100804.55
2018-07-20T00:23:54.010Z,100807.72
2018-07-20T00:26:21.984Z,100807.39
2018-07-20T00:28:50.428Z,100805.22
2018-07-20T00:31:18.711Z,100801.20
2018-07-20T00:33:46.705Z,100799.44
2018-07-20T00:36:14.713Z,100802.63
2018-07-20T00:38:42.714Z,100801.18
2018-07-20T00:41:10.733Z,100796.33
2018-07-20T00:43:38.693Z,100800.92
2018-07-20T00:46:06.740Z,100803.30
2018-07-20T00:48:34.748Z,100797.78
2018-07-20T00:51:02.750Z,100798.24
2018-07-20T00:53:30.825Z,100799.50
2018-07-20T00:55:58.876Z,100798.30
2018-07-20T00:58:27.102Z,100798.44
2018-07-20T01:00:55.108Z,100788.98
2018-07-20T01:03:23.130Z,100791.07
2018-07-20T01:05:51.136Z,100790.63
2018-07-20T01:08:19.140Z,100790.17
2018-07-20T01:10:47.133Z,100790.35
2018-07-20T01:13:15.253Z,100793.23
2018-07-20T01:15:43.252Z,100804.08
2018-07-20T01:18:11.252Z,100790.57
2018-07-20T01:20:39.232Z,100791.89
2018-07-20T01:23:07.221Z,100792.98
2018-07-20T01:25:35.250Z,100795.11
2018-07-20T01:28:03.244Z,100790.08
2018-07-20T01:30:31.257Z,100787.39
2018-07-20T01:32:59.338Z,100788.83
2018-07-20T01:35:27.343Z,100788.88
2018-07-20T01:37:55.348Z,100785.79
2018-07-20T01:40:23.340Z,100792.05
2018-07-20T01:42:51.356Z,100786.70
2018-07-20T01:45:19.388Z,100784.29
2018-07-20T01:47:47.390Z,100785.00
2018-07-20T01:50:15.567Z,100782.98
2018-07-20T01:52:43.544Z,100780.03
2018-07-20T01:55:11.564Z,100774.55
2018-07-20T01:57:39.581Z,100780.48
2018-07-20T02:00:07.709Z,100772.20
2018-07-20T02:02:35.711Z,100770.86
2018-07-20T02:05:03.718Z,100768.13
2018-07-20T02:07:31.718Z,100770.98
2018-07-20T02:09:59.725Z,100767.75
2018-07-20T02:12:27.820Z,100766.42
2018-07-20T02:14:55.816Z,100764.06
2018-07-20T02:17:23.824Z,100772.56
2018-07-20T02:19:51.817Z,100773.95
2018-07-20T02:22:19.817Z,100775.05
2018-07-20T02:24:47.817Z,100768.90
2018-07-20T02:27:15.808Z,100766.11
2018-07-20T02:29:43.797Z,100763.56
2018-07-20T02:32:11.776Z,100759.59
2018-07-20T02:34:39.915Z,100766.14
2018-07-20T02:37:07.900Z,100773.63
2018-07-20T02:39:35.928Z,100774.59
2018-07-20T02:42:03.994Z,100769.50
2018-07-20T02:44:32.061Z,100762.64
2018-07-20T02:47:00.118Z,100757.17
2018-07-20T02:49:28.102Z,100761.23
2018-07-20T02:51:56.091Z,100759.13
2018-07-20T02:54:24.076Z,100765.71
2018-07-20T02:56:52.060Z,100761.70
2018-07-20T02:59:20.540Z,100761.73
2018-07-20T03:01:48.522Z,100761.45
2018-07-20T03:04:16.525Z,100764.03
2018-07-20T03:06:44.596Z,100756.66
2018-07-20T03:09:13.640Z,100765.73
2018-07-20T03:11:42.441Z,100763.59
2018-07-20T03:14:10.497Z,100768.25
2018-07-20T03:16:38.684Z,100769.37
2018-07-20T03:19:07.991Z,100764.34
2018-07-20T03:21:36.062Z,100757.82
2018-07-20T03:24:04.018Z,100757.48
2018-07-20T03:26:32.205Z,100754.97
2018-07-20T03:29:00.189Z,100760.34
2018-07-20T03:31:28.229Z,100761.86
2018-07-20T03:33:56.245Z,100758.84
2018-07-20T03:36:24.263Z,100750.19
2018-07-20T03:38:52.249Z,100748.23
2018-07-20T03:41:20.228Z,100747.33
2018-07-20T03:43:48.227Z,100754.02
2018-07-20T03:46:16.213Z,100753.58
2018-07-20T03:48:44.196Z,100747.45
2018-07-20T03:51:12.199Z,100749.77
2018-07-20T03:53:40.189Z,100753.58
2018-07-20T03:56:08.324Z,100745.22
2018-07-20T03:58:36.324Z,100749.37
2018-07-20T04:01:04.325Z,100737.27
2018-07-20T04:03:32.312Z,100742.08
2018-07-20T04:06:00.310Z,100740.91
2018-07-20T04:08:28.300Z,100740.33
2018-07-20T04:10:57.360Z,100744.71
2018-07-20T04:13:25.348Z,100746.40
2018-07-20T04:15:53.369Z,100748.42
2018-07-20T04:18:21.343Z,100750.11
2018-07-20T04:20:49.336Z,100743.54
2018-07-20T04:23:17.503Z,100747.89
2018-07-20T04:25:45.540Z,100742.59
2018-07-20T04:28:13.586Z,100741.43
2018-07-20T04:30:41.580Z,100740.84
2018-07-20T04:33:09.580Z,100736.95
2018-07-20T04:35:37.589Z,100741.67
2018-07-20T04:38:05.576Z,100739.84
2018-07-20T04:40:33.569Z,100739.50
2018-07-20T04:43:01.576Z,100739.22
2018-07-20T04:45:29.560Z,100740.14
2018-07-20T04:47:57.576Z,100739.72
2018-07-20T04:50:25.576Z,100742.41
2018-07-20T04:52:53.569Z,100744.75
2018-07-20T04:55:21.568Z,100743.78
2018-07-20T04:57:49.570Z,100747.11
2018-07-20T05:00:17.553Z,100744.56
2018-07-20T05:02:45.601Z,100745.37
2018-07-20T05:05:13.596Z,100739.36
2018-07-20T05:07:41.617Z,100740.02
2018-07-20T05:10:09.609Z,100738.20
2018-07-20T05:12:37.614Z,100735.72
2018-07-20T05:15:05.601Z,100736.52
2018-07-20T05:17:33.615Z,100733.80
2018-07-20T05:20:01.881Z,100734.05
2018-07-20T05:22:29.944Z,100729.92
2018-07-20T05:24:58.036Z,100731.59
2018-07-20T05:27:26.052Z,100726.38
2018-07-20T05:29:54.057Z,100727.99
2018-07-20T05:32:22.089Z,100729.19
2018-07-20T05:34:50.173Z,100730.24
2018-07-20T05:37:18.167Z,100733.42
2018-07-20T05:39:46.320Z,100732.77
2018-07-20T05:42:14.314Z,100728.81
2018-07-20T05:44:42.313Z,100721.02
2018-07-20T05:47:10.928Z,100724.08
2018-07-20T05:49:38.940Z,100719.44
2018-07-20T05:52:06.947Z,100722.61
2018-07-20T05:54:34.932Z,100720.48
2018-07-20T05:57:02.925Z,100725.50
2018-07-20T05:59:30.913Z,100724.58
2018-07-20T06:01:58.914Z,100722.53
2018-07-20T06:04:26.920Z,100726.75
2018-07-20T06:06:55.039Z,100723.84
2018-07-20T06:09:23.086Z,100732.38
2018-07-20T06:11:51.106Z,100724.61
2018-07-20T06:14:19.193Z,100727.70
2018-07-20T06:16:47.214Z,100719.26
2018-07-20T06:19:15.218Z,100721.63
2018-07-20T06:21:43.289Z,100721.83
2018-07-20T06:24:11.281Z,100716.84
2018-07-20T06:26:39.284Z,100720.38
2018-07-20T06:29:07.286Z,100727.12
2018-07-20T06:31:35.337Z,100723.86
2018-07-20T06:34:03.344Z,100719.11
2018-07-20T06:36:31.376Z,100716.60
2018-07-20T06:38:59.410Z,100720.21
2018-07-20T06:41:27.432Z,100718.53
2018-07-20T06:43:55.472Z,100722.39
2018-07-20T06:46:23.544Z,100722.08
2018-07-20T06:48:51.548Z,100724.82
2018-07-20T06:51:19.593Z,100723.81
2018-07-20T06:53:47.596Z,100721.97
2018-07-20T06:56:15.612Z,100719.27
2018-07-20T06:58:43.736Z,100729.17
2018-07-20T07:01:11.721Z,100727.89
2018-07-20T07:03:39.887Z,100727.71
2018-07-20T07:06:07.932Z,100730.19
2018-07-20T07:08:35.941Z,100732.72
2018-07-20T07:11:03.956Z,100734.88
2018-07-20T07:13:32.152Z,100730.07
2018-07-20T07:16:00.422Z,100734.75
2018-07-20T07:18:28.465Z,100739.00
2018-07-20T07:20:56.576Z,100739.55
2018-07-20T07:23:24.661Z,100739.14
2018-07-20T07:25:53.125Z,100743.59
2018-07-20T07:28:21.080Z,100751.58
2018-07-20T07:30:49.172Z,100748.75
2018-07-20T07:33:17.221Z,100747.95
2018-07-20T07:35:45.232Z,100750.77
2018-07-20T07:38:13.228Z,100749.74
2018-07-20T07:40:41.242Z,100753.03
2018-07-20T07:43:09.323Z,100746.52
2018-07-20T07:45:37.322Z,100742.45
2018-07-20T07:48:05.348Z,100741.81
2018-07-20T07:50:33.408Z,100738.43
2018-07-20T07:53:01.430Z,100730.70
2018-07-20T07:55:29.436Z,100729.02
2018-07-20T07:57:57.444Z,100731.22
2018-07-20T08:00:25.480Z,100736.63
2018-07-20T08:02:53.520Z,100729.88
2018-07-20T08:05:21.543Z,100733.50
2018-07-20T08:07:49.548Z,100726.73
2018-07-20T08:10:17.609Z,100722.14
2018-07-20T08:12:45.573Z,100728.33
2018-07-20T08:15:13.573Z,100730.12
2018-07-20T08:17:41.592Z,100724.97
2018-07-20T08:20:09.620Z,100723.39
2018-07-20T08:22:37.672Z,100718.83
2018-07-20T08:25:05.688Z,100723.27
2018-07-20T08:27:33.716Z,100708.45
2018-07-20T08:30:01.784Z,100710.04
2018-07-20T08:32:29.797Z,100705.41
2018-07-20T08:34:57.842Z,100708.44
2018-07-20T08:37:25.948Z,100708.92
2018-07-20T08:39:54.099Z,100709.88
2018-07-20T08:42:22.104Z,100703.62
2018-07-20T08:44:50.132Z,100708.71
2018-07-20T08:47:18.201Z,100705.58
2018-07-20T08:49:46.259Z,100705.02
2018-07-20T08:52:14.341Z,100706.72
2018-07-20T08:54:42.368Z,100704.15
2018-07-20T08:57:10.817Z,100709.45
2018-07-20T08:59:39.128Z,100700.05
2018-07-20T09:02:07.415Z,100700.80
2018-07-20T09:04:35.801Z,100694.17
2018-07-20T09:07:04.049Z,100701.09
2018-07-20T09:09:32.235Z,100704.95
2018-07-20T09:12:00.242Z,100703.97
2018-07-20T09:14:29.528Z,100704.95
2018-07-20T09:16:57.773Z,100690.61
2018-07-20T09:19:25.852Z,100693.22
2018-07-20T09:21:54.061Z,100693.92
2018-07-20T09:24:22.397Z,100686.58
2018-07-20T09:26:51.654Z,100693.99
2018-07-20T09:29:19.888Z,100691.40
2018-07-20T09:31:47.993Z,100690.83
2018-07-20T09:34:16.285Z,100684.16
2018-07-20T09:36:44.648Z,100691.48
2018-07-20T09:39:13.065Z,100682.78
2018-07-20T09:41:41.233Z,100680.86
2018-07-20T09:44:10.176Z,100683.55
2018-07-20T09:46:38.460Z,100685.81
2018-07-20T09:49:06.762Z,100677.72
2018-07-20T09:51:35.555Z,100675.13
2018-07-20T09:54:03.617Z,100668.69
2018-07-20T09:56:31.660Z,100673.20
2018-07-20T09:58:59.710Z,100673.33
2018-07-20T10:01:27.714Z,100667.07
2018-07-20T10:03:55.759Z,100670.22
2018-07-20T10:06:23.756Z,100666.68
2018-07-20T10:08:51.800Z,100665.60
2018-07-20T10:11:19.855Z,100665.49
2018-07-20T10:13:47.876Z,100664.40
2018-07-20T10:16:15.940Z,100661.01
2018-07-20T10:18:43.994Z,100664.05
2018-07-20T10:21:12.105Z,100661.94
2018-07-20T10:23:40.193Z,100657.71
2018-07-20T10:26:09.118Z,100651.66
2018-07-20T10:28:37.429Z,100657.08
2018-07-20T10:31:05.676Z,100656.57
2018-07-20T10:33:33.976Z,100650.12
2018-07-20T10:36:02.241Z,100651.61
2018-07-20T10:38:30.353Z,100655.05
2018-07-20T10:40:58.631Z,100651.81
2018-07-20T10:43:26.824Z,100651.26
2018-07-20T10:45:54.874Z,100656.70
2018-07-20T10:48:23.280Z,100648.74
2018-07-20T10:50:51.417Z,100650.56
2018-07-20T10:53:19.570Z,100643.54
2018-07-20T10:55:47.593Z,100651.36
2018-07-20T10:58:15.694Z,100647.58
2018-07-20T11:00:50.302Z,100650.20
2018-07-20T11:03:18.553Z,100640.52
2018-07-20T11:05:46.684Z,100638.33
2018-07-20T11:08:14.832Z,100639.42
2018-07-20T11:10:43.032Z,100637.63
2018-07-20T11:13:11.295Z,100634.08
2018-07-20T11:15:39.314Z,100623.50
2018-07-20T11:18:08.474Z,100631.31
2018-07-20T11:20:36.457Z,100631.82
2018-07-20T11:23:04.648Z,100624.59
2018-07-20T11:25:32.668Z,100622.80
2018-07-20T11:28:00.768Z,100622.63
2018-07-20T11:30:28.876Z,100629.90
2018-07-20T11:32:57.397Z,100618.50
2018-07-20T11:35:25.459Z,100615.86
2018-07-20T11:37:53.490Z,100613.03
2018-07-20T11:40:21.481Z,100609.78
2018-07-20T11:42:49.546Z,100610.53
2018-07-20T11:45:17.576Z,100607.34
2018-07-20T11:47:45.624Z,100612.50
2018-07-20T11:50:13.677Z,100609.02
2018-07-20T11:52:41.689Z,100604.78
2018-07-20T11:55:09.777Z,100600.35
2018-07-20T11:57:37.819Z,100600.58
2018-07-20T12:00:05.845Z,100597.19
2018-07-20T12:02:33.911Z,100590.66
2018-07-20T12:05:01.912Z,100590.33
2018-07-20T12:07:30.088Z,100593.30
2018-07-20T12:09:58.108Z,100584.47
2018-07-20T12:12:26.145Z,100577.10
2018-07-20T12:14:54.196Z,100582.63
2018-07-20T12:17:22.243Z,100583.27
2018-07-20T12:19:50.283Z,100578.52
2018-07-20T12:22:18.409Z,100577.58
2018-07-20T12:24:46.688Z,100574.00
2018-07-20T12:27:14.949Z,100565.58
2018-07-20T12:29:43.152Z,100567.05
2018-07-20T12:32:11.350Z,100568.48
2018-07-20T12:34:39.663Z,100563.04
2018-07-20T12:37:08.010Z,100560.33
2018-07-20T12:39:36.090Z,100561.56
2018-07-20T12:42:04.356Z,100560.41
2018-07-20T12:44:32.520Z,100550.34
2018-07-20T12:47:01.677Z,100552.77
2018-07-20T12:49:29.772Z,100555.69
2018-07-20T12:51:57.853Z,100554.14
2018-07-20T12:54:25.918Z,100548.48
2018-07-20T12:56:54.107Z,100540.86
2018-07-20T12:59:22.165Z,100543.02
2018-07-20T13:01:50.304Z,100540.41
2018-07-20T13:04:18.324Z,100536.75
2018-07-20T13:06:46.457Z,100541.27
2018-07-20T13:09:14.522Z,100538.05
2018-07-20T13:11:43.276Z,100529.94
2018-07-20T13:14:12.181Z,100532.20
2018-07-20T13:16:40.981Z,100520.01
2018-07-20T13:19:09.108Z,100526.89
2018-07-20T13:21:37.177Z,100516.64
2018-07-20T13:24:05.488Z,100517.58
2018-07-20T13:26:33.616Z,100509.16
2018-07-20T13:29:01.796Z,100516.80
2018-07-20T13:31:29.832Z,100508.03
2018-07-20T13:33:57.923Z,100506.22
2018-07-20T13:36:26.101Z,100508.82
2018-07-20T13:38:54.169Z,100510.45
2018-07-20T13:41:22.427Z,100508.16
2018-07-20T13:43:50.555Z,100502.26
2018-07-20T13:46:18.629Z,100502.36
2018-07-20T13:48:46.741Z,100502.09
2018-07-20T13:51:14.812Z,100502.27
2018-07-20T13:53:43.012Z,100501.27
2018-07-20T13:56:11.172Z,100497.16
2018-07-20T13:58:39.313Z,100490.55
2018-07-20T14:01:07.593Z,100486.55
2018-07-20T14:03:35.795Z,100477.52
2018-07-20T14:06:03.863Z,100480.63
2018-07-20T14:08:32.265Z,100479.19
2018-07-20T14:11:00.344Z,100477.82
2018-07-20T14:13:28.553Z,100475.26
2018-07-20T14:15:56.860Z,100470.30
2018-07-20T14:18:24.996Z,100467.06
2018-07-20T14:20:53.176Z,100461.55
2018-07-20T14:23:21.495Z,100459.16
2018-07-20T14:25:50.135Z,100461.79
2018-07-20T14:28:18.132Z,100459.45
2018-07-20T14:30:46.204Z,100454.59
2018-07-20T14:33:14.286Z,100458.11
2018-07-20T14:35:42.422Z,100460.97
2018-07-20T14:38:10.596Z,100453.72
2018-07-20T14:40:38.637Z,100446.85
2018-07-20T14:43:07.022Z,100441.15
2018-07-20T14:45:35.118Z,100439.94
2018-07-20T14:48:03.222Z,100442.74
2018-07-20T14:50:31.290Z,100446.38
2018-07-20T14:52:59.370Z,100438.78
2018-07-20T14:55:27.516Z,100432.89
2018-07-20T14:57:55.858Z,100431.14
2018-07-20T15:00:23.851Z,100431.84
2018-07-20T15:02:51.860Z,100429.38
2018-07-20T15:05:19.967Z,100425.09
2018-07-20T15:07:47.985Z,100418.73
2018-07-20T15:10:16.095Z,100425.97
2018-07-20T15:12:44.121Z,100422.91
2018-07-20T15:15:12.129Z,100419.00
2018-07-20T15:17:40.216Z,100420.66
2018-07-20T15:20:08.637Z,100416.13
2018-07-20T15:22:36.712Z,100412.70
2018-07-20T15:25:05.351Z,100415.74
2018-07-20T15:27:33.524Z,100410.17
2018-07-20T15:30:01.596Z,100414.99
2018-07-20T15:32:29.630Z,100408.28
2018-07-20T15:34:57.618Z,100409.58
2018-07-20T15:37:25.738Z,100404.77
2018-07-20T15:39:53.845Z,100393.16
2018-07-20T15:42:21.771Z,100386.92
2018-07-20T15:44:50.075Z,100389.09
2018-07-20T15:47:18.117Z,100383.73
2018-07-20T15:49:46.076Z,100391.12
2018-07-20T15:54:42.091Z,100379.95
2018-07-20T15:57:10.096Z,100379.02
2018-07-20T15:59:38.131Z,100368.73
2018-07-20T16:02:06.400Z,100367.50
2018-07-20T16:04:34.408Z,100369.13
2018-07-20T16:07:02.618Z,100361.52
2018-07-20T16:09:30.629Z,100370.89
2018-07-20T16:11:58.645Z,100367.36
2018-07-20T16:14:26.648Z,100358.41
2018-07-20T16:16:54.676Z,100358.38
2018-07-20T16:19:22.730Z,100357.23
2018-07-20T16:21:50.730Z,100355.23
2018-07-20T16:24:18.778Z,100356.27
2018-07-20T16:26:46.820Z,100352.41
2018-07-20T16:29:14.828Z,100346.53
2018-07-20T16:31:42.833Z,100350.24
2018-07-20T16:34:10.848Z,100349.42
2018-07-20T16:36:38.905Z,100351.49
2018-07-20T16:39:08.612Z,100350.33
2018-07-20T16:41:36.768Z,100344.67
2018-07-20T16:44:04.801Z,100346.47
2018-07-20T16:46:32.873Z,100341.72
2018-07-20T16:49:00.914Z,100338.66
2018-07-20T16:51:28.937Z,100340.61
2018-07-20T16:53:57.015Z,100340.98
2018-07-20T16:56:25.024Z,100335.81
2018-07-20T16:58:53.056Z,100335.66
2018-07-20T17:01:21.076Z,100330.36
2018-07-20T17:03:49.247Z,100326.47
2018-07-20T17:06:17.344Z,100326.38
2018-07-20T17:08:45.444Z,100325.48
2018-07-20T17:11:13.567Z,100327.22
2018-07-20T17:13:41.675Z,100321.86
2018-07-20T17:16:09.713Z,100316.84
2018-07-20T17:18:37.829Z,100319.53
2018-07-20T17:21:05.876Z,100315.86
2018-07-20T17:23:34.005Z,100326.07
2018-07-20T17:26:02.141Z,100312.93
2018-07-20T17:28:30.335Z,100310.29
2018-07-20T17:30:58.501Z,100310.97
2018-07-20T17:33:26.682Z,100312.87
2018-07-20T17:35:55.322Z,100314.13
2018-07-20T17:38:23.453Z,100309.14
2018-07-20T17:40:51.660Z,100304.59
2018-07-20T17:43:19.849Z,100306.34
2018-07-20T17:45:48.495Z,100305.13
2018-07-20T17:48:16.658Z,100309.75
2018-07-20T17:50:44.959Z,100308.68
2018-07-20T17:53:13.096Z,100310.45
2018-07-20T17:55:41.180Z,100312.94
2018-07-20T17:58:09.311Z,100310.31
2018-07-20T18:00:37.316Z,100307.81
2018-07-20T18:03:05.461Z,100307.63
2018-07-20T18:05:33.461Z,100310.92
2018-07-20T18:08:01.909Z,100310.59
2018-07-20T18:10:30.107Z,100305.66
2018-07-20T18:12:58.089Z,100302.50
2018-07-20T18:15:26.102Z,100306.47
2018-07-20T18:17:54.937Z,100308.47
2018-07-20T18:20:23.992Z,100303.37
2018-07-20T18:22:52.131Z,100296.24
2018-07-20T18:25:20.413Z,100306.62
2018-07-20T18:27:48.598Z,100301.02
2018-07-20T18:30:16.756Z,100301.45
2018-07-20T18:32:44.949Z,100302.19
2018-07-20T18:35:12.984Z,100307.31
2018-07-20T18:37:41.172Z,100305.75
2018-07-20T18:40:09.281Z,100307.02
2018-07-20T18:42:37.576Z,100304.09
2018-07-20T18:45:06.471Z,100305.98
2018-07-20T18:47:34.511Z,100312.44
2018-07-20T18:50:02.698Z,100305.45
2018-07-20T18:52:30.785Z,100312.19
2018-07-20T18:54:58.824Z,100308.63
2018-07-20T18:57:26.897Z,100313.80
2018-07-20T18:59:56.213Z,100305.57
2018-07-20T19:02:24.257Z,100310.17
2018-07-20T19:04:52.401Z,100302.32
2018-07-20T19:07:20.553Z,100308.78
2018-07-20T19:09:48.899Z,100307.35
2018-07-20T19:12:16.977Z,100301.81
2018-07-20T19:14:45.179Z,100310.19
2018-07-20T19:17:13.425Z,100306.23
2018-07-20T19:19:41.588Z,100304.73
2018-07-20T19:22:09.820Z,100303.62
2018-07-20T19:24:37.916Z,100306.13
2018-07-20T19:27:06.273Z,100308.73
2018-07-20T19:29:34.681Z,100308.97
2018-07-20T19:32:02.757Z,100309.99
2018-07-20T19:34:30.977Z,100310.14
2018-07-20T19:36:59.136Z,100315.94
2018-07-20T19:39:27.334Z,100320.94
2018-07-20T19:41:55.608Z,100322.30
2018-07-20T19:44:23.809Z,100327.68
2018-07-20T19:46:51.937Z,100328.00
2018-07-20T19:49:20.200Z,100326.48
2018-07-20T19:51:48.260Z,100325.88
2018-07-20T19:54:16.456Z,100327.31
2018-07-20T19:56:44.770Z,100333.84
2018-07-20T19:59:13.050Z,100338.20
2018-07-20T20:01:41.152Z,100341.42
2018-07-20T20:04:09.307Z,100346.94
2018-07-20T20:06:37.588Z,100349.55
2018-07-20T20:09:07.770Z,100349.55
2018-07-20T20:11:35.820Z,100356.10
2018-07-20T20:14:03.969Z,100352.34
2018-07-20T20:16:32.189Z,100352.31
2018-07-20T20:19:00.214Z,100354.59
2018-07-20T20:21:28.220Z,100358.30
2018-07-20T20:23:56.268Z,100355.52
2018-07-20T20:26:24.289Z,100359.96
2018-07-20T20:28:52.372Z,100363.38
2018-07-20T20:31:20.472Z,100360.91
2018-07-20T20:33:48.473Z,100364.41
2018-07-20T20:36:16.609Z,100368.70
2018-07-20T20:38:44.631Z,100376.98
2018-07-20T20:41:12.654Z,100379.08
2018-07-20T20:43:40.904Z,100383.05
2018-07-20T20:46:08.970Z,100388.12
2018-07-20T20:48:38.076Z,100388.23
2018-07-20T20:51:06.127Z,100388.55
2018-07-20T20:53:34.088Z,100385.28
2018-07-20T20:56:02.213Z,100387.66
2018-07-20T20:58:30.293Z,100380.11
2018-07-20T21:00:58.341Z,100388.19
2018-07-20T21:03:26.357Z,100384.45
2018-07-20T21:05:54.355Z,100386.17
2018-07-20T21:08:22.537Z,100385.17
2018-07-20T21:10:50.617Z,100392.64
2018-07-20T21:13:18.731Z,100386.79
2018-07-20T21:15:46.789Z,100391.75
2018-07-20T21:18:15.217Z,100389.27
2018-07-20T21:20:43.348Z,100385.12
2018-07-20T21:23:11.401Z,100378.24
2018-07-20T21:25:39.477Z,100378.59
2018-07-20T21:28:07.483Z,100371.91
2018-07-20T21:30:35.614Z,100374.77
2018-07-20T21:33:03.641Z,100380.81
2018-07-20T21:35:31.648Z,100384.17
2018-07-20T21:37:59.664Z,100386.53
2018-07-20T21:40:27.978Z,100390.56
2018-07-20T21:42:56.008Z,100388.71
2018-07-20T21:45:24.047Z,100384.54
2018-07-20T21:47:52.140Z,100384.73
2018-07-20T21:50:20.156Z,100374.81
2018-07-20T21:52:48.337Z,100377.15
2018-07-20T21:55:16.436Z,100379.17
2018-07-20T21:57:44.496Z,100369.92
2018-07-20T22:00:15.381Z,100374.14
2018-07-20T22:02:43.451Z,100369.30
2018-07-20T22:05:11.437Z,100367.77
2018-07-20T22:07:39.508Z,100367.45
2018-07-20T22:10:08.092Z,100376.35
2018-07-20T22:12:36.345Z,100372.00
2018-07-20T22:15:05.020Z,100369.81
2018-07-20T22:17:33.149Z,100376.87
2018-07-20T22:20:01.165Z,100374.67
2018-07-20T22:22:29.220Z,100385.94
2018-07-20T22:24:57.419Z,100379.87
2018-07-20T22:27:25.420Z,100384.25
2018-07-20T22:29:53.550Z,100380.58
2018-07-20T22:32:21.949Z,100383.91
2018-07-20T22:34:50.035Z,100378.55
2018-07-20T22:37:18.036Z,100382.06
2018-07-20T22:39:46.067Z,100379.87
2018-07-20T22:42:14.065Z,100380.86
2018-07-20T22:44:42.323Z,100377.49
2018-07-20T22:47:10.406Z,100377.16
2018-07-20T22:49:38.445Z,100378.84
2018-07-20T22:52:06.548Z,100377.49
2018-07-20T22:54:35.641Z,100376.30
2018-07-20T22:57:03.646Z,100372.97
2018-07-20T22:59:31.672Z,100375.64
2018-07-20T23:01:59.789Z,100374.47
2018-07-20T23:04:27.820Z,100371.27
2018-07-20T23:06:55.889Z,100374.78
2018-07-20T23:09:24.004Z,100373.77
2018-07-20T23:11:52.041Z,100370.40
2018-07-20T23:14:20.096Z,100375.77
2018-07-20T23:16:48.120Z,100374.79
2018-07-20T23:19:16.145Z,100372.08
2018-07-20T23:21:44.155Z,100373.10
2018-07-20T23:24:12.229Z,100371.44
2018-07-20T23:26:40.268Z,100371.43
2018-07-20T23:29:08.325Z,100367.23
2018-07-20T23:31:36.313Z,100374.66
2018-07-20T23:34:04.369Z,100375.13
2018-07-20T23:36:32.383Z,100371.77
2018-07-20T23:39:00.370Z,100368.25
2018-07-20T23:41:28.513Z,100359.52
2018-07-20T23:43:56.502Z,100360.36
2018-07-20T23:46:24.628Z,100367.73
2018-07-20T23:48:52.604Z,100374.26
2018-07-20T23:51:20.649Z,100372.91
2018-07-20T23:53:48.693Z,100377.09
2018-07-20T23:56:16.693Z,100371.36
2018-07-20T23:58:44.694Z,100370.70
